Time;durP1;ratioP1;P1;durP2;ratioP2;P2;SDS_P1;SDS_P2;PMS_P1;PMS_P2;Temp;Humidity;BMP_temperature;BMP_pressure;BME280_temperature;BME280_humidity;BME280_pressure;Samples;Min_cycle;Max_cycle;Signal;HPM_P1;HPM_P2
2023/02/14 00:01:39;;;;;;;26.27;12.23;;;;;;;-1.39;100.00;100937.69;5070725;28;20055;-79
2023/02/14 00:04:05;;;;;;;31.50;14.70;;;;;;;-1.45;100.00;100938.81;5062525;28;20059;-79
2023/02/14 00:06:34;;;;;;;30.88;13.52;;;;;;;-1.56;100.00;100922.41;5062984;28;20044;-79
2023/02/14 00:09:02;;;;;;;31.60;12.98;;;;;;;-1.56;100.00;100930.41;5066847;28;20131;-79
2023/02/14 00:11:30;;;;;;;31.77;14.25;;;;;;;-1.65;100.00;100913.84;5070681;28;20045;-79
2023/02/14 00:16:40;;;;;;;34.15;15.55;;;;;;;-1.57;100.00;100936.66;5070145;28;20404;-78
2023/02/14 00:19:07;;;;;;;29.70;13.98;;;;;;;-1.75;100.00;100919.63;5070149;28;20044;-79
2023/02/14 00:21:37;;;;;;;31.50;14.35;;;;;;;-1.67;100.00;100936.16;5067341;28;20045;-78
2023/02/14 00:24:07;;;;;;;34.30;13.68;;;;;;;-1.71;100.00;100934.56;5068225;28;20083;-79
2023/02/14 00:26:33;;;;;;;27.00;12.98;;;;;;;-1.80;100.00;100923.34;5069463;28;20045;-79
2023/02/14 00:29:00;;;;;;;27.08;12.82;;;;;;;-1.76;100.00;100934.75;5069890;28;20051;-79
2023/02/14 00:31:26;;;;;;;27.23;13.27;;;;;;;-1.74;100.00;100929.38;5068564;28;20044;-79
2023/02/14 00:33:54;;;;;;;30.15;14.02;;;;;;;-1.93;100.00;100911.44;5069209;28;20044;-79
2023/02/14 00:36:21;;;;;;;30.65;14.35;;;;;;;-1.75;100.00;100920.47;5069829;28;20060;-79
2023/02/14 00:38:47;;;;;;;32.00;13.60;;;;;;;-1.84;100.00;100912.84;5065901;28;20052;-79
2023/02/14 00:41:18;;;;;;;35.90;15.07;;;;;;;-1.68;100.00;100937.09;5065175;28;20055;-78
2023/02/14 00:43:45;;;;;;;30.85;13.80;;;;;;;-1.67;100.00;100930.81;5066416;28;20167;-79
2023/02/14 00:46:12;;;;;;;29.58;13.82;;;;;;;-1.63;100.00;100913.78;5073259;28;20048;-79
2023/02/14 00:48:38;;;;;;;34.03;14.52;;;;;;;-1.44;100.00;100933.41;5064145;28;20044;-79
2023/02/14 00:51:05;;;;;;;29.95;13.63;;;;;;;-1.54;100.00;100931.19;5072751;28;20051;-79
2023/02/14 00:53:32;;;;;;;29.85;14.95;;;;;;;-1.69;100.00;100912.22;5064369;28;20072;-79
2023/02/14 00:55:58;;;;;;;34.65;13.55;;;;;;;-1.72;100.00;100900.81;5065954;28;20059;-79
2023/02/14 00:58:26;;;;;;;31.50;14.30;;;;;;;-1.59;100.00;100935.88;5061578;28;20526;-79
2023/02/14 01:00:53;;;;;;;31.65;14.85;;;;;;;-1.68;100.00;100921.09;5057844;28;20063;-78
2023/02/14 01:03:20;;;;;;;30.90;14.25;;;;;;;-1.61;100.00;100925.25;5059007;28;20074;-78
2023/02/14 01:05:47;;;;;;;35.55;14.50;;;;;;;-1.76;100.00;100909.88;5064397;28;20052;-78
2023/02/14 01:08:14;;;;;;;31.10;13.80;;;;;;;-1.60;100.00;100929.63;5062906;28;20046;-78
2023/02/14 01:10:42;;;;;;;33.13;13.65;;;;;;;-1.65;100.00;100940.50;5066224;28;20056;-78
2023/02/14 01:13:08;;;;;;;31.50;14.82;;;;;;;-1.65;100.00;100935.16;5065260;28;20080;-78
2023/02/14 01:15:40;;;;;;;30.85;14.52;;;;;;;-1.64;100.00;100934.25;5077491;28;20641;-79
2023/02/14 01:18:07;;;;;;;32.28;15.50;;;;;;;-1.78;100.00;100917.94;5069523;28;20050;-78
2023/02/14 01:20:34;;;;;;;33.30;13.65;;;;;;;-1.65;100.00;100928.97;5069720;28;20048;-78
2023/02/14 01:23:01;;;;;;;32.20;14.20;;;;;;;-1.70;100.00;100928.28;5066094;28;20052;-78
2023/02/14 01:25:28;;;;;;;34.50;14.00;;;;;;;-1.73;100.00;100929.28;5067412;28;20049;-78
2023/02/14 01:27:54;;;;;;;29.90;14.23;;;;;;;-1.84;100.00;100912.84;5076604;28;20041;-78
2023/02/14 01:30:21;;;;;;;31.00;13.93;;;;;;;-1.68;100.00;100923.78;5077661;28;20040;-79
2023/02/14 01:32:49;;;;;;;37.25;14.60;;;;;;;-1.67;100.00;100917.47;5069334;28;20049;-79
2023/02/14 01:35:16;;;;;;;33.78;14.85;;;;;;;-1.76;100.00;100931.19;5068435;28;20048;-79
2023/02/14 01:37:42;;;;;;;33.53;14.57;;;;;;;-1.82;100.00;100924.34;5071563;28;20045;-78
2023/02/14 01:40:11;;;;;;;34.83;14.95;;;;;;;-1.87;100.00;100923.66;5071894;28;20055;-79
2023/02/14 01:42:38;;;;;;;32.90;13.77;;;;;;;-1.87;100.00;100928.97;5072897;28;20519;-79
2023/02/14 01:45:09;;;;;;;29.45;13.75;;;;;;;-1.92;100.00;100917.66;5073794;28;20048;-79
2023/02/14 01:47:40;;;;;;;37.25;14.73;;;;;;;-1.97;100.00;100913.34;5073357;28;20056;-79
2023/02/14 01:50:11;;;;;;;34.20;14.25;;;;;;;-1.92;100.00;100915.84;5072896;28;20048;-78
2023/02/14 01:52:43;;;;;;;31.92;14.00;;;;;;;-1.94;100.00;100919.47;5070712;28;20044;-79
2023/02/14 01:55:13;;;;;;;30.15;13.05;;;;;;;-2.03;100.00;100899.41;5066755;28;20052;-79
2023/02/14 01:57:44;;;;;;;27.25;13.00;;;;;;;-1.88;100.00;100921.91;5070788;28;20418;-79
2023/02/14 02:02:58;;;;;;;30.77;14.38;;;;;;;-2.04;100.00;100922.53;5071310;28;20063;-79
2023/02/14 02:05:27;;;;;;;28.83;14.13;;;;;;;-2.09;100.00;100910.31;5067731;28;20036;-79
2023/02/14 02:07:58;;;;;;;31.20;14.43;;;;;;;-2.04;100.00;100921.66;5067777;28;20044;-79
2023/02/14 02:10:25;;;;;;;34.17;13.88;;;;;;;-2.04;100.00;100930.53;5070777;28;20045;-79
2023/02/14 02:12:53;;;;;;;28.95;13.48;;;;;;;-2.19;100.00;100924.00;5064384;28;20056;-79
2023/02/14 02:15:25;;;;;;;37.88;14.82;;;;;;;-2.26;100.00;100910.97;5067519;28;20040;-78
2023/02/14 02:18:02;;;;;;;29.38;13.38;;;;;;;-2.33;100.00;100908.56;5071943;28;20322;-78
2023/02/14 02:21:01;;;;;;;28.70;12.82;;;;;;;-2.40;100.00;100906.19;5072675;28;20056;-79
2023/02/14 02:23:53;;;;;;;29.23;13.20;;;;;;;-2.34;100.00;100936.13;5069129;28;20555;-78
2023/02/14 02:26:50;;;;;;;27.92;13.75;;;;;;;-2.41;100.00;100926.66;5074541;28;20040;-78
2023/02/14 02:29:47;;;;;;;25.98;12.18;;;;;;;-2.43;100.00;100932.94;5072437;28;20688;-78
2023/02/14 02:32:49;;;;;;;29.17;13.50;;;;;;;-2.59;100.00;100908.69;5080916;28;20506;-78
2023/02/14 02:35:35;;;;;;;23.85;11.20;;;;;;;-2.55;100.00;100927.16;5063985;28;20059;-78
2023/02/14 02:38:27;;;;;;;23.65;10.63;;;;;;;-2.56;100.00;100929.88;5071289;28;20040;-78
2023/02/14 02:41:02;;;;;;;27.08;12.93;;;;;;;-2.60;100.00;100934.47;5062954;28;20053;-78
2023/02/14 02:43:43;;;;;;;27.08;11.80;;;;;;;-2.79;100.00;100907.63;5069976;28;20052;-78
2023/02/14 02:49:11;;;;;;;23.15;11.60;;;;;;;-2.67;100.00;100924.97;5071017;28;20122;-78
2023/02/14 02:54:35;;;;;;;26.20;12.80;;;;;;;-2.81;100.00;100906.84;5067375;28;20141;-78
2023/02/14 02:57:05;;;;;;;28.40;13.63;;;;;;;-2.89;100.00;100915.13;5069699;28;20060;-78
2023/02/14 02:59:34;;;;;;;25.15;11.82;;;;;;;-2.86;100.00;100917.66;5068082;28;20041;-78
2023/02/14 03:02:05;;;;;;;26.42;13.02;;;;;;;-2.81;100.00;100936.13;5070386;28;20504;-78
2023/02/14 03:07:35;;;;;;;27.42;12.00;;;;;;;-3.01;100.00;100918.22;5063963;28;20137;-78
2023/02/14 03:10:06;;;;;;;25.90;12.57;;;;;;;-3.02;100.00;100933.31;5070847;28;20059;-78
2023/02/14 03:12:56;;;;;;;31.30;12.50;;;;;;;-3.02;100.00;100921.81;5066806;28;20480;-78
2023/02/14 03:15:38;;;;;;;21.88;10.77;;;;;;;-3.04;100.00;100918.31;5063963;28;20052;-78
2023/02/14 03:20:56;;;;;;;22.75;11.82;;;;;;;-3.06;100.00;100931.66;5066242;28;20051;-78
2023/02/14 03:23:29;;;;;;;27.05;12.13;;;;;;;-3.15;100.00;100942.63;5070697;28;20037;-78
2023/02/14 03:26:06;;;;;;;30.30;12.25;;;;;;;-3.10;100.00;100939.81;5069934;28;20053;-78
2023/02/14 03:28:42;;;;;;;27.65;11.85;;;;;;;-3.20;100.00;100936.63;5068981;28;20056;-78
2023/02/14 03:31:19;;;;;;;27.13;13.70;;;;;;;-3.28;100.00;100918.28;5070484;28;20048;-78
2023/02/14 03:33:50;;;;;;;31.38;11.85;;;;;;;-3.39;100.00;100904.47;5071228;28;20036;-78
2023/02/14 03:36:21;;;;;;;24.08;11.70;;;;;;;-3.20;100.00;100936.63;5070328;28;20479;-78
2023/02/14 03:38:55;;;;;;;27.58;12.77;;;;;;;-3.40;100.00;100905.41;5071430;28;20055;-78
2023/02/14 03:41:27;;;;;;;25.17;12.27;;;;;;;-3.25;100.00;100928.81;5070666;28;20045;-78
2023/02/14 03:43:57;;;;;;;23.90;11.05;;;;;;;-3.25;100.00;100925.25;5070629;28;20041;-78
2023/02/14 03:46:26;;;;;;;;;;;;;;;-3.26;100.00;100921.75;5066098;28;20420;-78
2023/02/14 03:48:56;;;;;;;24.40;11.95;;;;;;;-3.38;100.00;100914.19;5071492;28;20386;-78
2023/02/14 03:51:26;;;;;;;23.58;10.77;;;;;;;-3.44;100.00;100903.78;5067851;28;20055;-78
2023/02/14 03:53:57;;;;;;;25.45;11.18;;;;;;;-3.53;100.00;100901.44;5064885;28;20408;-78
2023/02/14 03:56:32;;;;;;;26.02;11.50;;;;;;;-3.35;100.00;100922.06;5068239;28;20569;-78
2023/02/14 03:59:05;;;;;;;23.83;11.30;;;;;;;-3.49;100.00;100903.03;5066661;28;20507;-78
2023/02/14 04:01:36;;;;;;;25.40;11.13;;;;;;;-3.45;100.00;100912.66;5063264;28;20396;-78
2023/02/14 04:04:05;;;;;;;22.65;11.40;;;;;;;-3.59;100.00;100889.22;5069827;28;20059;-78
2023/02/14 04:06:32;;;;;;;23.85;11.57;;;;;;;-3.52;100.00;100914.69;5060813;28;20052;-78
2023/02/14 04:08:59;;;;;;;26.20;11.43;;;;;;;-3.54;100.00;100921.81;5063216;28;20507;-78
2023/02/14 04:11:26;;;;;;;24.45;12.60;;;;;;;-3.70;100.00;100918.81;5068775;28;20049;-78
2023/02/14 04:13:53;;;;;;;25.13;11.70;;;;;;;-3.72;100.00;100912.66;5066846;28;20048;-78
2023/02/14 04:16:20;;;;;;;24.73;11.00;;;;;;;-3.69;100.00;100907.25;5070762;28;20052;-78
2023/02/14 04:21:30;;;;;;;26.77;12.32;;;;;;;-3.74;100.00;100918.03;5069863;28;20067;-78
2023/02/14 04:23:56;;;;;;;26.20;12.88;;;;;;;-3.66;100.00;100925.75;5066892;28;20048;-78
2023/02/14 04:26:24;;;;;;;29.70;13.43;;;;;;;-3.80;100.00;100934.19;5066509;28;20067;-78
2023/02/14 04:28:51;;;;;;;25.55;12.27;;;;;;;-3.85;100.00;100925.50;5070285;28;20052;-78
2023/02/14 04:31:17;;;;;;;26.35;11.90;;;;;;;-3.85;100.00;100921.97;5070590;28;20048;-78
2023/02/14 04:33:44;;;;;;;23.95;11.25;;;;;;;-3.94;100.00;100902.75;5067775;28;20037;-78
2023/02/14 04:36:11;;;;;;;24.77;11.53;;;;;;;-3.91;100.00;100913.28;5068692;28;20499;-78
2023/02/14 04:38:38;;;;;;;26.05;12.38;;;;;;;-3.81;100.00;100926.25;5063063;28;20049;-78
2023/02/14 04:41:05;;;;;;;23.27;10.68;;;;;;;-3.82;100.00;100920.09;5064727;28;20535;-78
2023/02/14 04:43:32;;;;;;;25.38;11.43;;;;;;;-3.97;100.00;100908.16;5062235;28;20059;-78
2023/02/14 04:45:59;;;;;;;31.30;12.67;;;;;;;-3.95;100.00;100901.00;5068869;28;20080;-78
2023/02/14 04:48:26;;;;;;;23.60;11.67;;;;;;;-3.93;100.00;100907.16;5069169;28;20123;-78
2023/02/14 04:50:53;;;;;;;28.80;11.88;;;;;;;-3.98;100.00;100913.53;5066519;28;20056;-78
2023/02/14 04:53:20;;;;;;;27.60;12.80;;;;;;;-3.98;100.00;100917.03;5064906;28;20037;-78
2023/02/14 04:55:49;;;;;;;24.40;11.00;;;;;;;-4.02;100.00;100911.88;5068325;28;20484;-78
2023/02/14 04:58:15;;;;;;;25.03;11.17;;;;;;;-4.03;100.00;100907.50;5068658;28;20539;-78
2023/02/14 05:00:43;;;;;;;27.10;11.57;;;;;;;-4.00;100.00;100916.25;5065377;28;20306;-78
2023/02/14 05:03:10;;;;;;;24.07;11.83;;;;;;;-4.05;100.00;100904.91;5071744;28;20060;-78
2023/02/14 05:05:36;;;;;;;21.80;11.03;;;;;;;-4.06;100.00;100910.22;5071637;28;20044;-78
2023/02/14 05:08:03;;;;;;;25.40;12.47;;;;;;;-4.19;100.00;100893.84;5073759;28;20051;-78
2023/02/14 05:10:29;;;;;;;24.10;11.40;;;;;;;-4.12;100.00;100903.34;5071686;28;20405;-78
2023/02/14 05:12:56;;;;;;;27.43;11.93;;;;;;;-4.07;100.00;100903.19;5061550;28;20041;-78
2023/02/14 05:15:22;;;;;;;22.57;12.13;;;;;;;-4.19;100.00;100893.84;5076620;28;20050;-78
2023/02/14 05:17:50;;;;;;;28.80;12.27;;;;;;;-4.18;100.00;100904.41;5076415;28;20045;-78
2023/02/14 05:20:17;;;;;;;24.80;11.63;;;;;;;-4.09;100.00;100921.84;5064155;28;20053;-78
2023/02/14 05:22:43;;;;;;;25.80;11.37;;;;;;;-4.08;100.00;100910.28;5071380;28;20057;-78
2023/02/14 05:25:10;;;;;;;25.53;11.30;;;;;;;-4.18;100.00;100906.19;5070870;28;20052;-78
2023/02/14 05:27:36;;;;;;;28.17;12.13;;;;;;;-4.32;100.00;100894.22;5071078;28;20055;-77
2023/02/14 05:30:03;;;;;;;21.73;11.80;;;;;;;-4.23;100.00;100905.47;5072089;28;20475;-78
2023/02/14 05:32:29;;;;;;;29.63;11.63;;;;;;;-4.22;100.00;100920.50;5070473;28;20062;-79
2023/02/14 05:34:58;;;;;;;28.07;11.90;;;;;;;-4.28;100.00;100910.91;5068081;28;20044;-79
2023/02/14 05:37:25;;;;;;;27.15;11.85;;;;;;;-4.41;100.00;100899.81;5071732;28;20049;-79
2023/02/14 05:39:51;;;;;;;28.67;11.67;;;;;;;-4.37;100.00;100903.25;5064534;28;20147;-79
2023/02/14 05:42:18;;;;;;;32.47;12.20;;;;;;;-4.49;100.00;100902.69;5069639;28;20139;-79
2023/02/14 05:44:44;;;;;;;26.13;12.20;;;;;;;-4.57;100.00;100894.09;5069686;28;20052;-79
2023/02/14 05:47:11;;;;;;;29.07;11.20;;;;;;;-4.38;100.00;100925.38;5071457;28;20056;-79
2023/02/14 05:49:37;;;;;;;25.43;11.77;;;;;;;-4.52;100.00;100915.19;5063676;28;20037;-79
2023/02/14 05:52:05;;;;;;;24.37;10.90;;;;;;;-4.47;100.00;100923.88;5062124;28;20415;-79
2023/02/14 05:54:32;;;;;;;25.47;11.47;;;;;;;-4.56;100.00;100916.19;5067995;28;20049;-79
2023/02/14 05:56:59;;;;;;;27.00;11.60;;;;;;;-4.57;100.00;100919.78;5070426;28;20049;-79
2023/02/14 05:59:25;;;;;;;26.07;11.50;;;;;;;-4.53;100.00;100919.66;5062710;28;20479;-79
2023/02/14 06:01:52;;;;;;;23.60;10.53;;;;;;;-4.64;100.00;100924.38;5067634;28;22530;-78
2023/02/14 06:04:18;;;;;;;27.90;10.80;;;;;;;-4.54;100.00;100930.31;5069747;28;20131;-79
2023/02/14 06:06:45;;;;;;;22.43;11.60;;;;;;;-4.48;100.00;100941.59;5068850;28;20119;-79
2023/02/14 06:09:12;;;;;;;26.70;11.27;;;;;;;-4.57;100.00;100922.44;5070408;28;20052;-79
2023/02/14 06:11:39;;;;;;;28.20;10.40;;;;;;;-4.52;100.00;100939.09;5060733;28;20045;-79
2023/02/14 06:14:06;;;;;;;29.67;11.30;;;;;;;-4.64;100.00;100913.78;5057148;28;20506;-79
2023/02/14 06:16:32;;;;;;;23.83;10.37;;;;;;;-4.68;100.00;100920.06;5062780;28;20473;-79
2023/02/14 06:18:59;;;;;;;29.23;11.53;;;;;;;-4.59;100.00;100924.25;5069416;28;20057;-79
2023/02/14 06:21:25;;;;;;;26.10;10.23;;;;;;;-4.67;100.00;100932.44;5069111;28;20790;-79
2023/02/14 06:23:54;;;;;;;25.57;10.97;;;;;;;-4.70;100.00;100938.69;5068292;28;20044;-78
2023/02/14 06:26:26;;;;;;;26.27;11.00;;;;;;;-4.65;100.00;100941.25;5064942;28;20057;-79
2023/02/14 06:28:54;;;;;;;26.50;10.40;;;;;;;-4.71;100.00;100930.78;5054905;28;20091;-80
2023/02/14 06:31:21;;;;;;;20.27;9.37;;;;;;;-4.78;100.00;100913.31;5067000;28;20450;-79
2023/02/14 06:33:48;;;;;;;24.67;10.57;;;;;;;-4.65;100.00;100943.91;5063713;28;20553;-79
2023/02/14 06:36:15;;;;;;;26.90;10.70;;;;;;;-4.69;100.00;100943.09;5068272;28;20052;-79
2023/02/14 06:38:43;;;;;;;23.77;10.77;;;;;;;-4.73;100.00;100949.41;5071681;28;20063;-78
2023/02/14 06:41:11;;;;;;;25.13;11.30;;;;;;;-4.72;100.00;100945.84;5066917;28;20040;-79
2023/02/14 06:43:39;;;;;;;27.80;10.27;;;;;;;-4.69;100.00;100944.91;5068015;28;20048;-79
2023/02/14 06:46:06;;;;;;;24.33;10.70;;;;;;;-4.76;100.00;100945.97;5069995;28;20051;-78
2023/02/14 06:48:32;;;;;;;21.60;9.70;;;;;;;-4.62;100.00;100944.66;5070814;28;20044;-78
2023/02/14 06:50:59;;;;;;;27.63;12.50;;;;;;;-4.60;100.00;100951.72;5065687;28;20415;-79
2023/02/14 06:53:25;;;;;;;20.60;9.83;;;;;;;-4.64;100.00;100942.97;5070125;28;20083;-79
2023/02/14 06:55:52;;;;;;;20.43;9.80;;;;;;;-4.60;100.00;100943.75;5069403;28;20040;-78
2023/02/14 06:58:18;;;;;;;23.70;10.70;;;;;;;-4.59;100.00;100941.06;5070073;28;20511;-78
2023/02/14 07:00:47;;;;;;;28.77;10.80;;;;;;;-4.72;100.00;100921.97;5066283;28;20498;-78
2023/02/14 07:03:13;;;;;;;25.07;9.67;;;;;;;-4.63;100.00;100932.31;5071224;28;20484;-79
2023/02/14 07:05:40;;;;;;;22.87;9.17;;;;;;;-4.51;100.00;100946.16;5072523;28;20044;-78
2023/02/14 07:08:07;;;;;;;19.87;9.90;;;;;;;-4.58;100.00;100936.63;5064987;28;20051;-80
2023/02/14 07:10:34;;;;;;;30.03;11.57;;;;;;;-4.50;100.00;100938.13;5068518;28;20050;-78
2023/02/14 07:13:00;;;;;;;33.03;12.60;;;;;;;-4.45;100.00;100948.63;5065600;28;20057;-78
2023/02/14 07:15:27;;;;;;;45.93;17.10;;;;;;;-4.42;100.00;100939.69;5062732;28;20045;-78
2023/02/14 07:17:55;;;;;;;33.87;13.83;;;;;;;-4.37;100.00;100946.59;5065660;28;20077;-78
2023/02/14 07:20:22;;;;;;;31.53;13.70;;;;;;;-4.29;100.00;100960.50;5067248;28;20497;-78
2023/02/14 07:22:48;;;;;;;37.20;12.83;;;;;;;-4.18;100.00;100952.22;5068102;28;20396;-78
2023/02/14 07:25:15;;;;;;;36.47;13.60;;;;;;;-4.05;100.00;100947.41;5065532;28;20053;-78
2023/02/14 07:27:49;;;;;;;40.63;13.97;;;;;;;-4.11;100.00;100948.47;5059808;28;20059;-78
2023/02/14 07:30:16;;;;;;;33.30;11.77;;;;;;;-4.00;100.00;100944.59;5066236;28;20548;-78
2023/02/14 07:32:43;;;;;;;41.43;12.40;;;;;;;-4.01;100.00;100933.09;5067855;28;20071;-78
2023/02/14 07:35:11;;;;;;;40.03;11.70;;;;;;;-4.09;100.00;100921.84;5060069;28;20048;-78
2023/02/14 07:37:37;;;;;;;42.07;13.73;;;;;;;-4.10;100.00;100912.13;5061589;28;20131;-78
2023/02/14 07:40:05;;;;;;;44.17;14.83;;;;;;;-3.91;100.00;100939.84;5059439;28;20055;-78
2023/02/14 07:42:32;;;;;;;40.80;14.73;;;;;;;-3.92;100.00;100930.13;5061416;28;20041;-78
2023/02/14 07:44:58;;;;;;;34.13;13.77;;;;;;;-3.94;100.00;100917.84;5059916;28;20503;-78
2023/02/14 07:47:25;;;;;;;35.53;15.97;;;;;;;-3.78;100.00;100931.47;5068053;28;20048;-78
2023/02/14 07:49:51;;;;;;;38.63;15.37;;;;;;;-3.76;100.00;100925.19;5057411;28;20060;-78
2023/02/14 07:52:19;;;;;;;42.53;16.43;;;;;;;-3.75;100.00;100920.75;5067125;28;20048;-78
2023/02/14 07:54:46;;;;;;;44.37;14.43;;;;;;;-3.70;100.00;100915.28;5077355;28;20055;-78
2023/02/14 07:57:12;;;;;;;37.77;14.50;;;;;;;-3.56;100.00;100929.84;5076202;28;20036;-78
2023/02/14 07:59:40;;;;;;;36.88;15.55;;;;;;;-3.40;100.00;100929.34;5069646;28;20503;-78
2023/02/14 08:02:07;;;;;;;42.47;14.95;;;;;;;-3.28;100.00;100938.66;5065605;28;20399;-78
2023/02/14 08:04:33;;;;;;;33.08;14.63;;;;;;;-3.31;100.00;100939.66;5067432;28;20053;-78
2023/02/14 08:07:00;;;;;;;37.77;15.27;;;;;;;-3.38;100.00;100917.72;5077342;28;20056;-78
2023/02/14 08:09:28;;;;;;;42.87;14.83;;;;;;;-3.21;100.00;100937.53;5072115;28;20476;-78
2023/02/14 08:14:40;;;;;;;45.47;16.00;;;;;;;-3.16;100.00;100924.06;5069832;28;20064;-78
2023/02/14 08:17:08;;;;;;;48.65;18.70;;;;;;;-3.00;100.00;100930.59;5069872;28;20040;-78
2023/02/14 08:19:35;;;;;;;37.67;16.27;;;;;;;-3.10;100.00;100908.78;5063520;28;20106;-78
2023/02/14 08:22:02;;;;;;;47.10;17.43;;;;;;;-2.95;100.00;100919.78;5070316;28;20060;-78
2023/02/14 08:24:31;;;;;;;45.78;18.38;;;;;;;-2.92;100.00;100925.88;5071114;28;20055;-78
2023/02/14 08:26:57;;;;;;;42.03;17.63;;;;;;;-2.83;100.00;100911.38;5070680;28;20052;-78
2023/02/14 08:29:24;;;;;;;46.33;18.38;;;;;;;-2.77;100.00;100913.78;5071197;28;20049;-78
2023/02/14 08:31:52;;;;;;;47.63;18.98;;;;;;;-2.58;100.00;100921.09;5068776;28;20049;-79
2023/02/14 08:34:19;;;;;;;46.70;17.38;;;;;;;-2.70;100.00;100893.13;5067295;28;20470;-78
2023/02/14 08:36:46;;;;;;;49.20;19.70;;;;;;;-2.56;100.00;100922.78;5067134;28;20049;-79
2023/02/14 08:39:12;;;;;;;41.15;17.45;;;;;;;-2.62;100.00;100914.13;5070924;28;20045;-78
2023/02/14 08:41:40;;;;;;;46.88;18.83;;;;;;;-2.52;100.00;100910.19;5070408;28;20049;-78
2023/02/14 08:44:07;;;;;;;40.15;17.60;;;;;;;-2.36;100.00;100916.69;5069653;28;20053;-78
2023/02/14 08:46:33;;;;;;;47.17;19.95;;;;;;;-2.18;100.00;100928.41;5070109;28;20048;-78
2023/02/14 08:49:00;;;;;;;40.40;18.40;;;;;;;-2.19;100.00;100905.34;5070442;28;20495;-79
2023/02/14 08:51:26;;;;;;;37.78;17.10;;;;;;;-1.99;100.00;100903.69;5059611;28;20049;-78
2023/02/14 08:53:54;;;;;;;38.70;15.20;;;;;;;-1.79;100.00;100921.56;5058371;28;20500;-78
2023/02/14 08:56:21;;;;;;;40.17;16.23;;;;;;;-1.93;100.00;100899.91;5069336;28;20045;-78
2023/02/14 08:58:51;;;;;;;37.97;16.05;;;;;;;-1.78;100.00;100909.94;5070491;28;20128;-79
2023/02/14 09:01:18;;;;;;;38.42;16.25;;;;;;;-1.77;100.00;100910.81;5070067;28;20066;-78
2023/02/14 09:03:45;;;;;;;39.03;16.98;;;;;;;-1.70;100.00;100901.63;5063257;28;20045;-78
2023/02/14 09:06:15;;;;;;;38.38;16.98;;;;;;;-1.66;100.00;100893.41;5062496;28;20060;-78
2023/02/14 09:08:43;;;;;;;36.40;15.60;;;;;;;-1.69;100.00;100880.22;5066867;28;20041;-78
2023/02/14 09:11:11;;;;;;;31.08;15.25;;;;;;;-1.43;100.00;100899.56;5066060;28;20052;-78
2023/02/14 09:13:38;;;;;;;35.85;15.77;;;;;;;-1.45;100.00;100874.78;5068519;28;20071;-78
2023/02/14 09:16:06;;;;;;;32.88;15.60;;;;;;;-1.37;100.00;100882.44;5070127;28;20430;-79
2023/02/14 09:18:33;;;;;;;45.50;15.60;;;;;;;-1.27;100.00;100875.78;5063792;28;20049;-79
2023/02/14 09:20:59;;;;;;;37.13;16.17;;;;;;;-1.11;100.00;100886.66;5068084;28;20056;-78
2023/02/14 09:23:26;;;;;;;34.28;14.15;;;;;;;-0.96;100.00;100885.13;5065635;28;20127;-79
2023/02/14 09:26:00;;;;;;;39.17;16.77;;;;;;;-0.86;100.00;100882.88;5069688;28;20575;-78
2023/02/14 09:28:26;;;;;;;34.83;16.10;;;;;;;-0.85;100.00;100861.44;5070426;28;20162;-79
2023/02/14 09:30:53;;;;;;;36.50;15.80;;;;;;;-0.65;100.00;100878.34;5069693;28;20488;-78
2023/02/14 09:33:21;;;;;;;38.42;15.73;;;;;;;-0.67;100.00;100866.88;5067978;28;20049;-78
2023/02/14 09:35:48;;;;;;;31.92;15.18;;;;;;;-0.66;100.00;100853.47;5069540;28;20045;-78
2023/02/14 09:38:14;;;;;;;36.88;15.43;;;;;;;-0.58;100.00;100855.75;5070264;28;20051;-78
2023/02/14 09:40:41;;;;;;;36.17;17.00;;;;;;;-0.38;100.00;100866.38;5068462;28;20291;-78
2023/02/14 09:43:15;;;;;;;41.00;17.20;;;;;;;-0.16;100.00;100884.06;5069146;28;20052;-78
2023/02/14 09:45:42;;;;;;;35.92;15.88;;;;;;;-0.17;100.00;100850.22;5069923;28;20056;-79
2023/02/14 09:48:19;;;;;;;36.35;16.45;;;;;;;0.05;100.00;100878.63;5066589;28;20048;-78
2023/02/14 09:50:49;;;;;;;36.15;14.68;;;;;;;0.08;100.00;100871.28;5069915;28;20283;-78
2023/02/14 09:53:22;;;;;;;35.17;14.95;;;;;;;0.17;100.00;100880.66;5069149;28;20056;-78
2023/02/14 09:55:54;;;;;;;25.95;14.15;;;;;;;0.19;100.00;100876.09;5068730;28;20045;-78
2023/02/14 09:58:28;;;;;;;32.53;13.75;;;;;;;0.24;100.00;100860.72;5071128;28;20136;-78
2023/02/14 10:01:01;;;;;;;31.52;10.35;;;;;;;0.27;100.00;100840.94;5068774;28;20401;-78
2023/02/14 10:03:58;;;;;;;32.28;14.32;;;;;;;0.45;100.00;100863.22;5070457;28;20377;-78
2023/02/14 10:06:48;;;;;;;30.38;14.05;;;;;;;0.67;100.00;100860.31;5071613;28;20128;-77
2023/02/14 10:09:39;;;;;;;26.05;11.85;;;;;;;0.63;100.00;100832.84;5073631;28;20055;-78
2023/02/14 10:12:10;;;;;;;35.75;15.38;;;;;;;0.83;100.00;100850.53;5067949;28;20461;-78
2023/02/14 10:14:39;;;;;;;35.20;14.60;;;;;;;0.89;100.00;100819.88;5072252;28;20059;-79
2023/02/14 10:17:09;;;;;;;29.58;12.55;;;;;;;1.16;100.00;100847.00;5073094;28;20441;-78
2023/02/14 10:19:38;;;;;;;;;;;;;;;1.31;100.00;100839.03;5070596;28;20060;-78
2023/02/14 10:22:12;;;;;;;31.05;14.35;;;;;;;1.24;100.00;100831.34;5069500;28;19927;-78
2023/02/14 10:24:45;;;;;;;29.58;12.38;;;;;;;1.35;100.00;100820.03;5073113;28;20048;-78
2023/02/14 10:27:22;;;;;;;36.35;14.63;;;;;;;1.35;100.00;100822.72;5073199;28;20500;-78
2023/02/14 10:29:49;;;;;;;28.88;13.70;;;;;;;1.49;100.00;100834.47;5073055;28;20076;-78
2023/02/14 10:32:22;;;;;;;29.92;13.25;;;;;;;1.50;100.00;100829.03;5072022;28;20049;-78
2023/02/14 10:34:50;;;;;;;28.63;13.85;;;;;;;1.67;100.00;100806.66;5063916;28;20052;-78
2023/02/14 10:37:30;;;;;;;30.70;13.50;;;;;;;1.75;100.00;100806.22;5071795;28;20040;-78
2023/02/14 10:40:09;;;;;;;30.17;14.05;;;;;;;1.86;100.00;100806.44;5072720;28;20040;-78
2023/02/14 10:42:46;;;;;;;25.65;13.25;;;;;;;2.06;100.00;100807.09;5072211;28;20048;-78
2023/02/14 10:45:22;;;;;;;28.13;14.23;;;;;;;1.94;100.00;100784.53;5065014;28;20053;-78
2023/02/14 10:47:56;;;;;;;22.65;10.38;;;;;;;2.32;100.00;100805.56;5072867;28;20127;-78
2023/02/14 10:50:28;;;;;;;30.55;14.15;;;;;;;2.32;100.00;100791.28;5071783;28;20071;-78
2023/02/14 10:53:07;;;;;;;22.98;10.98;;;;;;;2.37;100.00;100803.47;5071716;28;20045;-78
2023/02/14 10:55:43;;;;;;;26.45;12.15;;;;;;;2.53;100.00;100802.53;5071502;28;20052;-78
2023/02/14 10:58:14;;;;;;;27.08;13.90;;;;;;;2.46;100.00;100799.38;5071831;28;20045;-79
2023/02/14 11:00:55;;;;;;;29.70;13.65;;;;;;;2.43;100.00;100775.41;5072623;28;20487;-78
2023/02/14 11:03:23;;;;;;;25.63;13.40;;;;;;;2.61;100.00;100789.53;5070119;28;20048;-78
2023/02/14 11:05:50;;;;;;;28.83;14.20;;;;;;;2.71;100.00;100797.88;5069674;28;20067;-78
2023/02/14 11:08:25;;;;;;;26.00;13.15;;;;;;;2.73;100.00;100788.75;5072200;28;20059;-78
2023/02/14 11:10:52;;;;;;;31.02;14.00;;;;;;;2.83;100.00;100789.94;5070819;28;20106;-78
2023/02/14 11:13:34;;;;;;;26.20;13.35;;;;;;;2.79;100.00;100776.78;5071129;28;20037;-78
2023/02/14 11:16:03;;;;;;;21.42;10.95;;;;;;;3.13;100.00;100796.16;5071885;28;20514;-79
2023/02/14 11:18:34;;;;;;;27.33;13.52;;;;;;;2.99;100.00;100779.06;5070139;28;20052;-78
2023/02/14 11:21:03;;;;;;;27.02;14.07;;;;;;;2.96;100.00;100762.28;5071127;28;20052;-79
2023/02/14 11:23:37;;;;;;;25.40;10.73;;;;;;;3.09;100.00;100790.13;5063584;28;20333;-78
2023/02/14 11:26:07;;;;;;;26.00;13.50;;;;;;;3.23;100.00;100785.69;5072180;28;20052;-78
2023/02/14 11:28:35;;;;;;;29.58;14.82;;;;;;;3.29;100.00;100770.00;5064011;28;20051;-79
2023/02/14 11:31:02;;;;;;;26.80;13.60;;;;;;;3.41;100.00;100778.28;5067969;28;20045;-79
2023/02/14 11:33:34;;;;;;;27.95;12.45;;;;;;;3.30;100.00;100742.19;5066835;28;20057;-79
2023/02/14 11:36:03;;;;;;;29.15;14.32;;;;;;;3.39;100.00;100740.72;5065880;28;20060;-79
2023/02/14 11:38:33;;;;;;;25.10;12.03;;;;;;;3.48;100.00;100748.19;5066239;28;20044;-79